Time;durP1;ratioP1;P1;durP2;ratioP2;P2;SDS_P1;SDS_P2;PMS_P1;PMS_P2;Temp;Humidity;BMP_temperature;BMP_pressure;BME280_temperature;BME280_humidity;BME280_pressure;Samples;Min_cycle;Max_cycle;Signal;HPM_P1;HPM_P2
2022/05/02 00:01:24;;;;;;;;;6.33;6.33;;;;;16.50;39.37;101593.59;5099652;27;45425;-89
2022/05/02 00:03:49;;;;;;;;;8.67;8.67;;;;;16.45;39.59;101583.06;5099452;27;45274;-89
2022/05/02 00:06:14;;;;;;;;;8.67;8.67;;;;;16.61;39.52;101615.41;5099552;27;45306;-89
2022/05/02 00:08:40;;;;;;;;;9.00;8.00;;;;;16.51;39.80;101598.03;5099319;27;45341;-89
2022/05/02 00:11:05;;;;;;;;;12.00;7.67;;;;;16.77;39.80;101638.81;5080828;27;47145;-89
2022/05/02 00:13:31;;;;;;;;;8.00;8.00;;;;;16.74;39.71;101637.16;5080604;27;45258;-90
2022/05/02 00:15:57;;;;;;;;;10.33;8.67;;;;;16.70;39.81;101634.72;5099478;27;45336;-89
2022/05/02 00:18:22;;;;;;;;;10.00;9.33;;;;;16.62;39.83;101614.47;5099370;27;45362;-89
2022/05/02 00:20:48;;;;;;;;;8.00;8.00;;;;;16.67;39.74;101627.69;5080453;27;47941;-89
2022/05/02 00:23:14;;;;;;;;;7.67;7.67;;;;;16.68;39.81;101632.97;5080826;27;45336;-89
2022/05/02 00:25:39;;;;;;;;;9.00;9.00;;;;;16.48;39.83;101587.41;5099115;27;45740;-89
2022/05/02 00:28:05;;;;;;;;;10.33;8.67;;;;;16.64;40.35;101625.13;5099145;27;45282;-89
2022/05/02 00:30:31;;;;;;;;;11.33;10.33;;;;;16.26;40.02;101574.28;5098584;27;46139;-89
2022/05/02 00:32:57;;;;;;;;;9.00;8.33;;;;;16.36;40.30;101585.41;5099045;27;45473;-89
2022/05/02 00:35:23;;;;;;;;;7.67;7.67;;;;;16.09;40.19;101539.38;5099142;27;45387;-89
2022/05/02 00:37:48;;;;;;;;;8.33;8.33;;;;;16.40;40.05;101593.22;5098828;27;45506;-89
2022/05/02 00:40:15;;;;;;;;;8.67;8.33;;;;;16.25;40.22;101578.81;5080255;27;46400;-89
2022/05/02 00:42:46;;;;;;;;;9.67;8.33;;;;;16.56;40.32;101624.69;5098437;27;45394;-89
2022/05/02 00:45:14;;;;;;;;;10.67;10.67;;;;;16.46;40.14;101602.81;5098874;27;45389;-89
2022/05/02 00:47:39;;;;;;;;;15.67;9.33;;;;;16.02;40.13;101531.63;5080582;27;45294;-89
2022/05/02 00:50:07;;;;;;;;;11.33;10.00;;;;;16.53;40.02;101612.28;5080117;27;46889;-89
2022/05/02 00:52:32;;;;;;;;;10.67;10.33;;;;;16.03;40.16;101525.28;5098523;27;45343;-89
2022/05/02 00:54:59;;;;;;;;;12.33;11.67;;;;;16.48;40.28;101600.00;5076800;28;45518;-89
2022/05/02 00:57:25;;;;;;;;;11.33;8.33;;;;;16.16;40.07;101548.84;5062805;28;45446;-89
2022/05/02 00:59:50;;;;;;;;;8.33;8.33;;;;;16.40;40.25;101585.16;5056144;28;47244;-89
2022/05/02 01:02:16;;;;;;;;;13.67;12.33;;;;;16.24;40.25;101557.34;5057709;28;45409;-89
2022/05/02 01:04:42;;;;;;;;;9.33;9.33;;;;;16.38;40.46;101578.13;5057927;28;45505;-89
2022/05/02 01:07:08;;;;;;;;;8.00;8.00;;;;;16.46;40.35;101586.66;5056578;28;45437;-89
2022/05/02 01:09:35;;;;;;;;;8.33;8.33;;;;;16.44;40.18;101586.75;5057340;28;45378;-89
2022/05/02 01:12:01;;;;;;;;;10.67;9.67;;;;;16.10;40.72;101527.66;5057315;28;45581;-89
2022/05/02 01:14:28;;;;;;;;;5.00;5.00;;;;;16.06;40.83;101526.06;5057515;28;45376;-88
2022/05/02 01:16:53;;;;;;;;;10.00;10.00;;;;;16.20;41.07;101548.59;5058137;28;45381;-89
2022/05/02 01:19:18;;;;;;;;;13.00;9.33;;;;;16.33;40.85;101580.22;5056361;28;45334;-88
2022/05/02 01:21:44;;;;;;;;;9.67;8.00;;;;;16.18;41.13;101553.19;5055800;28;45426;-88
2022/05/02 01:24:09;;;;;;;;;9.67;9.67;;;;;15.87;40.64;101504.69;5057843;28;45777;-88
2022/05/02 01:26:37;;;;;;;;;11.00;10.00;;;;;16.18;41.13;101572.03;5057043;28;45361;-88
2022/05/02 01:29:03;;;;;;;;;13.00;11.00;;;;;16.04;40.94;101553.94;5057435;28;45430;-88
2022/05/02 01:31:28;;;;;;;;;12.00;10.33;;;;;16.00;41.18;101549.66;5056844;28;45408;-87
2022/05/02 01:33:54;;;;;;;;;10.67;10.67;;;;;16.01;41.41;101556.78;5056186;28;45314;-90
2022/05/02 01:36:21;;;;;;;;;12.00;10.67;;;;;16.10;41.55;101574.25;5056241;28;45347;-88
2022/05/02 01:38:47;;;;;;;;;13.67;9.67;;;;;16.11;41.49;101580.47;5057110;28;45294;-89
2022/05/02 01:41:12;;;;;;;;;13.00;12.33;;;;;15.50;41.64;101487.78;5056682;28;45205;-88
2022/05/02 01:43:39;;;;;;;;;12.33;10.67;;;;;15.92;41.55;101559.09;5057085;28;45184;-88
2022/05/02 01:46:06;;;;;;;;;13.67;11.33;;;;;16.01;41.44;101582.78;5057586;28;45275;-90
2022/05/02 01:48:32;;;;;;;;;14.00;12.33;;;;;15.96;41.46;101576.78;5056742;28;46231;-88
2022/05/02 01:50:58;;;;;;;;;15.67;12.00;;;;;15.53;41.67;101519.91;5055529;28;46052;-88
2022/05/02 01:53:25;;;;;;;;;8.67;7.67;;;;;15.58;41.73;101525.91;5062578;28;45515;-90
2022/05/02 01:55:50;;;;;;;;;11.00;11.00;;;;;15.90;42.06;101586.06;5076944;27;45488;-88
2022/05/02 01:58:16;;;;;;;;;14.00;14.00;;;;;15.81;42.44;101573.09;5077074;28;45395;-90
2022/05/02 02:00:42;;;;;;;;;10.33;10.33;;;;;15.84;42.68;101589.06;5077149;28;45551;-88
2022/05/02 02:03:07;;;;;;;;;15.33;12.33;;;;;15.38;42.46;101502.72;5077494;27;45467;-88
2022/05/02 02:05:51;;;;;;;;;13.00;11.00;;;;;15.39;42.74;101518.78;5077366;28;45377;-88
2022/05/02 02:08:27;;;;;;;;;15.00;11.67;;;;;15.72;42.95;101573.59;5076723;28;45642;-90
2022/05/02 02:10:59;;;;;;;;;15.00;12.67;;;;;15.75;42.85;101578.78;5077080;28;45329;-89
2022/05/02 02:13:24;;;;;;;;;10.67;10.67;;;;;15.74;43.15;101574.38;5077278;28;45342;-90
2022/05/02 02:15:50;;;;;;;;;11.67;11.00;;;;;15.71;43.08;101578.09;5077236;28;45353;-89
2022/05/02 02:18:16;;;;;;;;;11.33;10.67;;;;;15.56;43.43;101549.28;5076713;28;46438;-90
2022/05/02 02:20:43;;;;;;;;;16.33;13.67;;;;;15.24;43.48;101502.56;5058695;28;45387;-90
2022/05/02 02:23:09;;;;;;;;;8.33;8.33;;;;;15.31;43.44;101526.38;5076741;28;45545;-90
2022/05/02 02:25:37;;;;;;;;;10.67;10.67;;;;;15.47;43.29;101544.38;5058682;28;45420;-89
2022/05/02 02:28:03;;;;;;;;;16.33;12.67;;;;;15.45;43.57;101547.13;5077083;27;46287;-90
2022/05/02 02:30:29;;;;;;;;;10.67;9.00;;;;;15.33;43.47;101520.91;5076871;28;45464;-90
2022/05/02 02:32:56;;;;;;;;;10.67;9.00;;;;;15.28;44.36;101513.09;5080575;28;45354;-90
2022/05/02 02:35:22;;;;;;;;;13.00;11.67;;;;;14.98;43.83;101467.19;5080898;28;45549;-90
2022/05/02 02:37:48;;;;;;;;;12.33;11.33;;;;;15.53;44.04;101558.38;5079535;27;45692;-90
2022/05/02 02:40:14;;;;;;;;;6.50;6.50;;;;;15.33;44.14;101524.47;5080340;28;45505;-90
2022/05/02 02:42:39;;;;;;;;;10.33;10.33;;;;;15.30;44.04;101523.75;5062158;28;45537;-90
2022/05/02 02:45:05;;;;;;;;;13.67;11.00;;;;;15.06;44.28;101480.25;5062222;28;45607;-90
2022/05/02 02:47:31;;;;;;;;;18.33;13.67;;;;;15.50;44.18;101557.66;5079922;28;46135;-90
2022/05/02 02:49:56;;;;;;;;;13.00;13.00;;;;;15.50;44.29;101554.97;5080190;28;45330;-89
2022/05/02 02:52:22;;;;;;;;;18.00;12.67;;;;;15.42;44.19;101550.00;5079936;28;45333;-90
2022/05/02 02:54:47;;;;;;;;;13.33;13.00;;;;;15.37;44.32;101538.63;5080185;28;45599;-89
2022/05/02 02:57:12;;;;;;;;;15.67;15.00;;;;;15.21;44.15;101508.97;5079780;27;46141;-90
2022/05/02 02:59:39;;;;;;;;;20.00;18.00;;;;;15.45;44.20;101548.97;5079617;27;45294;-90
2022/05/02 03:02:06;;;;;;;;;11.67;11.00;;;;;14.99;44.29;101477.84;5080181;28;45373;-89
2022/05/02 03:07:16;;;;;;;;;13.67;13.67;;;;;14.92;44.08;101465.69;5079662;27;45820;-88
2022/05/02 03:09:41;;;;;;;;;16.00;15.00;;;;;15.28;43.69;101522.97;5079748;28;45511;-89
2022/05/02 03:12:07;;;;;;;;;19.67;15.00;;;;;15.24;43.95;101518.69;5080466;27;45548;-90
2022/05/02 03:14:33;;;;;;;;;18.67;15.33;;;;;15.09;44.29;101493.50;5065065;28;45579;-89
2022/05/02 03:16:58;;;;;;;;;16.33;15.00;;;;;15.24;43.99;101516.00;5079366;27;58539;-90
2022/05/02 03:19:23;;;;;;;;;18.67;16.00;;;;;15.29;43.78;101533.66;5061599;28;45419;-90
2022/05/02 03:21:49;;;;;;;;;15.00;13.67;;;;;15.23;44.06;101522.34;5079414;27;45315;-90
2022/05/02 03:24:14;;;;;;;;;18.33;16.67;;;;;15.07;44.29;101504.31;5080257;27;45488;-90
2022/05/02 03:26:39;;;;;;;;;17.00;17.00;;;;;15.25;43.82;101526.69;5079442;28;46020;-90
2022/05/02 03:29:05;;;;;;;;;19.00;17.33;;;;;15.23;43.86;101527.72;5079378;27;47846;-90
2022/05/02 03:31:31;;;;;;;;;20.00;16.00;;;;;15.11;43.86;101507.72;5079454;28;45570;-90
2022/05/02 03:33:56;;;;;;;;;16.00;14.33;;;;;15.19;44.02;101516.25;5061922;28;45342;-90
2022/05/02 03:36:21;;;;;;;;;15.67;15.33;;;;;15.17;43.90;101518.13;5060956;28;48315;-90
2022/05/02 03:38:47;;;;;;;;;18.00;14.67;;;;;15.01;44.15;101499.25;5079104;28;45551;-90
2022/05/02 03:41:12;;;;;;;;;19.33;18.33;;;;;14.77;44.02;101463.75;5079443;27;45460;-90
2022/05/02 03:43:38;;;;;;;;;22.67;19.00;;;;;15.13;43.80;101519.25;5078860;28;45542;-90
2022/05/02 03:46:03;;;;;;;;;20.00;18.67;;;;;14.76;44.07;101462.03;5079435;28;45475;-89
2022/05/02 03:48:29;;;;;;;;;19.00;17.67;;;;;14.84;44.22;101483.09;5079085;27;45465;-90
2022/05/02 03:50:54;;;;;;;;;17.00;16.33;;;;;14.80;44.22;101474.34;5079070;28;45291;-90
2022/05/02 03:53:20;;;;;;;;;17.33;15.67;;;;;14.84;44.10;101485.78;5079763;27;45525;-90
2022/05/02 03:55:46;;;;;;;;;20.33;19.33;;;;;14.92;44.18;101497.03;5078853;27;45496;-89
2022/05/02 03:58:12;;;;;;;;;14.00;14.00;;;;;15.03;44.36;101521.53;5078835;27;45864;-89
2022/05/02 04:00:38;;;;;;;;;16.33;16.00;;;;;15.02;44.56;101530.50;5079213;28;45496;-89
2022/05/02 04:03:03;;;;;;;;;18.67;17.67;;;;;14.95;44.37;101515.66;5061299;28;45496;-89
2022/05/02 04:05:28;;;;;;;;;19.33;16.33;;;;;14.94;44.36;101513.94;5078620;27;45345;-89
2022/05/02 04:07:54;;;;;;;;;17.33;17.33;;;;;14.97;44.62;101520.00;5060544;28;57002;-89
2022/05/02 04:10:20;;;;;;;;;20.33;17.33;;;;;14.57;44.39;101456.72;5079381;28;45497;-89
2022/05/02 04:12:46;;;;;;;;;17.33;16.00;;;;;14.95;44.84;101519.22;5079236;28;45309;-89
2022/05/02 04:15:11;;;;;;;;;15.00;15.00;;;;;14.63;45.28;101472.47;5079021;27;46375;-90
2022/05/02 04:17:38;;;;;;;;;16.00;14.67;;;;;14.92;45.36;101531.94;5078383;28;45327;-89
2022/05/02 04:20:05;;;;;;;;;16.00;14.67;;;;;14.63;45.55;101485.91;5078935;28;45405;-89
2022/05/02 04:22:30;;;;;;;;;14.67;11.67;;;;;14.65;45.50;101488.50;5078900;28;45514;-89
2022/05/02 04:24:56;;;;;;;;;15.00;14.33;;;;;14.45;45.83;101454.59;5060310;28;48096;-89
2022/05/02 04:27:21;;;;;;;;;24.00;15.67;;;;;14.86;46.34;101529.53;5078892;28;45380;-89
2022/05/02 04:29:46;;;;;;;;;16.00;16.00;;;;;14.49;46.33;101475.84;5060354;27;46055;-89
2022/05/02 04:32:12;;;;;;;;;16.33;14.33;;;;;14.44;46.52;101464.44;5079245;27;45385;-89
2022/05/02 04:34:37;;;;;;;;;15.00;12.67;;;;;13.94;46.44;101379.25;5078024;27;48514;-89
2022/05/02 04:37:03;;;;;;;;;20.33;15.00;;;;;14.44;46.74;101475.16;5078346;28;45327;-89
2022/05/02 04:39:28;;;;;;;;;18.67;15.33;;;;;14.68;46.58;101521.44;5078578;28;45443;-90
2022/05/02 04:41:53;;;;;;;;;19.67;17.33;;;;;14.28;46.61;101475.06;5060521;28;45600;-89
2022/05/02 04:44:19;;;;;;;;;19.33;17.67;;;;;14.68;47.09;101529.50;5060683;28;46947;-89
2022/05/02 04:46:44;;;;;;;;;21.00;21.00;;;;;14.45;46.81;101489.47;5080565;28;45389;-89
2022/05/02 04:49:09;;;;;;;;;19.00;17.67;;;;;14.51;46.95;101513.28;5061398;28;45470;-89
2022/05/02 04:51:35;;;;;;;;;15.67;15.00;;;;;14.53;47.04;101514.09;5060542;28;45433;-89
2022/05/02 04:54:00;;;;;;;;;17.33;16.67;;;;;14.59;47.54;101527.25;5076880;28;45368;-89
2022/05/02 04:56:26;;;;;;;;;17.00;17.00;;;;;13.95;47.10;101429.22;5077598;27;45408;-89
2022/05/02 04:58:51;;;;;;;;;19.67;18.00;;;;;14.30;47.13;101486.53;5078297;28;45409;-89
2022/05/02 05:01:16;;;;;;;;;18.67;16.67;;;;;14.33;47.18;101497.16;5078889;27;45322;-89
2022/05/02 05:03:42;;;;;;;;;17.67;16.00;;;;;14.13;47.59;101473.94;5077241;28;46118;-89
2022/05/02 05:06:07;;;;;;;;;18.67;15.33;;;;;14.52;47.56;101537.38;5078065;28;45382;-89
2022/05/02 05:08:33;;;;;;;;;20.33;16.67;;;;;14.50;47.60;101538.41;5078010;27;45560;-89
2022/05/02 05:11:31;;;;;;;;;18.67;16.33;;;;;14.49;47.79;101533.94;5078461;28;45405;-89
2022/05/02 05:17:01;;;;;;;;;16.33;16.33;;;;;14.51;47.90;101535.63;5077574;28;45368;-89
2022/05/02 05:19:39;;;;;;;;;19.67;19.67;;;;;14.40;47.83;101518.28;5077875;27;45469;-89
2022/05/02 05:22:05;;;;;;;;;23.67;20.67;;;;;14.55;47.93;101545.31;5059700;28;45696;-89
2022/05/02 05:24:39;;;;;;;;;24.67;22.33;;;;;14.51;47.87;101527.56;5077432;28;45382;-89
2022/05/02 05:27:10;;;;;;;;;19.67;18.00;;;;;14.57;47.84;101532.69;5077563;28;45552;-89
2022/05/02 05:29:52;;;;;;;;;23.33;22.67;;;;;14.58;48.03;101530.88;5077616;28;45227;-89
2022/05/02 05:32:28;;;;;;;;;22.67;21.33;;;;;14.35;47.85;101494.38;5059222;28;45408;-89
2022/05/02 05:35:08;;;;;;;;;23.67;22.00;;;;;14.19;47.34;101459.41;5077623;28;45399;-89
2022/05/02 05:37:54;;;;;;;;;28.00;19.67;;;;;14.66;48.00;101528.69;5077392;27;45316;-89
2022/05/02 05:40:40;;;;;;;;;25.00;20.33;;;;;14.68;47.49;101537.56;5077436;28;45416;-89
2022/05/02 05:43:14;;;;;;;;;29.67;25.00;;;;;14.39;47.64;101465.59;5059421;28;45420;-89
2022/05/02 05:46:08;;;;;;;;;26.00;23.67;;;;;14.76;47.75;101529.13;5076735;27;45569;-89
2022/05/02 05:48:40;;;;;;;;;24.00;21.00;;;;;14.79;47.26;101518.22;5077131;27;45398;-89
2022/05/02 05:51:14;;;;;;;;;33.00;26.00;;;;;14.83;47.03;101525.19;5077206;28;45442;-89
2022/05/02 05:53:49;;;;;;;;;26.00;25.00;;;;;14.84;47.62;101526.91;5058911;28;45333;-89
2022/05/02 05:56:34;;;;;;;;;23.33;20.00;;;;;14.82;47.03;101527.94;5059973;28;48061;-89
2022/05/02 05:59:07;;;;;;;;;29.33;23.67;;;;;14.89;47.19;101532.97;5059593;28;45458;-89
2022/05/02 06:01:53;;;;;;;;;25.33;25.33;;;;;14.47;47.36;101466.09;5076873;28;45363;-89
2022/05/02 06:04:19;;;;;;;;;31.00;27.00;;;;;14.32;47.52;101440.91;5077493;28;45495;-89
2022/05/02 06:06:47;;;;;;;;;27.67;25.33;;;;;14.59;47.77;101491.53;5063727;28;48165;-89
2022/05/02 06:09:14;;;;;;;;;27.33;27.00;;;;;14.40;47.41;101449.47;5065584;27;45505;-89
2022/05/02 06:11:40;;;;;;;;;31.00;24.33;;;;;14.72;47.55;101498.88;5065736;28;45591;-89
2022/05/02 06:14:06;;;;;;;;;29.00;27.67;;;;;14.90;47.72;101526.63;5065978;28;45587;-89
2022/05/02 06:19:28;;;;;;;;;38.75;34.75;;;;;15.02;47.43;101543.06;5084930;27;45630;-88
2022/05/02 06:21:55;;;;;;;;;42.50;32.00;;;;;15.02;46.95;101535.88;5084959;27;45318;-88
2022/05/02 06:24:26;;;;;;;;;31.00;28.33;;;;;15.08;47.12;101540.97;5066154;28;45477;-89
2022/05/02 06:26:53;;;;;;;;;26.67;26.00;;;;;15.08;46.94;101530.22;5084333;27;45462;-89
2022/05/02 06:29:20;;;;;;;;;31.67;25.00;;;;;15.17;46.63;101540.50;5083365;27;45681;-89
2022/05/02 06:31:50;;;;;;;;;26.00;26.00;;;;;15.02;46.50;101500.13;5083699;28;45363;-89
2022/05/02 06:34:21;;;;;;;;;30.00;27.67;;;;;15.29;46.43;101533.66;5083926;27;45447;-89
2022/05/02 06:37:12;;;;;;;;;28.00;26.67;;;;;15.36;46.64;101536.91;5083482;27;46187;-89
2022/05/02 06:40:04;;;;;;;;;32.00;30.33;;;;;15.43;46.34;101532.94;5083111;27;45417;-90
2022/05/02 06:42:39;;;;;;;;;29.67;26.67;;;;;15.23;46.50;101500.84;5065029;28;45259;-89
2022/05/02 06:45:29;;;;;;;;;23.33;22.00;;;;;15.53;46.12;101536.03;5065136;28;45668;-89
2022/05/02 06:48:18;;;;;;;;;32.00;30.00;;;;;15.58;46.24;101539.31;5083441;27;46065;-89
2022/05/02 06:50:57;;;;;;;;;31.67;27.33;;;;;15.51;46.27;101522.66;5083347;28;45523;-90
2022/05/02 06:53:56;;;;;;;;;28.67;27.00;;;;;15.59;45.60;101531.19;5083276;28;45505;-89
2022/05/02 06:56:40;;;;;;;;;30.67;27.33;;;;;15.82;45.90;101547.94;5083462;27;45257;-89
2022/05/02 06:59:54;;;;;;;;;30.67;28.00;;;;;15.90;45.29;101544.88;5082810;27;45633;-89
2022/05/02 07:02:34;;;;;;;;;30.67;29.67;;;;;15.74;44.94;101516.09;5060851;27;45666;-90
2022/05/02 07:05:06;;;;;;;;;26.67;26.67;;;;;15.83;45.23;101520.13;5065204;28;45751;-90
2022/05/02 07:07:43;;;;;;;;;30.00;27.33;;;;;16.11;44.62;101546.41;5083355;28;45420;-90
2022/05/02 07:10:15;;;;;;;;;24.67;23.67;;;;;16.17;44.59;101547.88;5083251;27;45315;-89
2022/05/02 07:12:49;;;;;;;;;31.67;26.67;;;;;16.22;44.02;101546.69;5082863;28;45429;-90
2022/05/02 07:15:32;;;;;;;;;30.67;27.67;;;;;15.99;44.19;101496.84;5083090;27;45426;-90
2022/05/02 07:18:06;;;;;;;;;28.67;16.67;;;;;16.27;44.43;101532.09;5080187;28;45424;-90
2022/05/02 07:21:00;;;;;;;;;30.67;26.00;;;;;16.44;44.32;101546.38;5079188;27;46267;-89
2022/05/02 07:23:44;;;;;;;;;30.67;28.00;;;;;16.52;43.99;101543.25;5067869;27;45580;-89
2022/05/02 07:26:15;;;;;;;;;36.33;29.67;;;;;16.17;44.24;101475.25;5079648;28;45313;-90
2022/05/02 07:28:46;;;;;;;;;35.33;30.00;;;;;16.67;43.79;101542.41;5079356;28;45345;-89
2022/05/02 07:31:13;;;;;;;;;32.67;27.67;;;;;16.77;43.41;101536.50;5061114;28;47346;-89
2022/05/02 07:33:40;;;;;;;;;32.67;28.00;;;;;16.86;43.26;101542.25;5061091;28;45711;-89
2022/05/02 07:36:06;;;;;;;;;32.00;28.33;;;;;16.55;43.07;101474.91;5079551;27;45469;-89
2022/05/02 07:38:34;;;;;;;;;28.67;27.00;;;;;16.73;43.50;101491.84;5079554;27;45459;-89
2022/05/02 07:43:57;;;;;;;;;28.33;26.67;;;;;17.24;41.48;101543.69;5078940;27;45408;-89
2022/05/02 07:46:31;;;;;;;;;28.33;24.67;;;;;17.17;40.71;101508.13;5079176;28;45342;-90
2022/05/02 07:48:58;;;;;;;;;29.00;23.33;;;;;17.45;40.49;101528.91;5079641;28;45416;-89
2022/05/02 07:51:25;;;;;;;;;25.33;25.33;;;;;17.27;40.27;101462.66;5079191;27;46206;-89
2022/05/02 07:53:51;;;;;;;;;26.00;22.00;;;;;17.32;39.38;101438.13;5080170;28;45226;-90
2022/05/02 07:56:22;;;;;;;;;34.00;28.67;;;;;17.96;38.35;101528.56;5079362;27;45230;-89
2022/05/02 07:58:50;;;;;;;;;26.67;23.00;;;;;18.08;39.14;101525.09;5061285;28;45532;-89
2022/05/02 08:01:21;;;;;;;;;24.33;22.67;;;;;18.10;38.93;101498.03;5078970;28;45419;-90
2022/05/02 08:03:46;;;;;;;;;27.67;23.33;;;;;18.13;38.52;101485.19;5078937;28;45341;-89
2022/05/02 08:06:30;;;;;;;;;32.67;25.67;;;;;18.31;38.13;101502.06;5079080;27;45335;-90
2022/05/02 08:09:12;;;;;;;;;21.67;17.33;;;;;18.52;38.68;101496.25;5079507;28;45390;-90
2022/05/02 08:11:49;;;;;;;;;30.00;26.67;;;;;18.92;37.97;101537.72;5078273;28;45413;-90
2022/05/02 08:14:22;;;;;;;;;25.33;19.67;;;;;18.93;37.25;101511.56;5078931;28;45546;-90
2022/05/02 08:17:17;;;;;;;;;31.00;25.33;;;;;19.20;36.76;101527.78;5078857;28;45417;-90
2022/05/02 08:19:58;;;;;;;;;30.67;25.00;;;;;19.13;36.44;101503.00;5060407;28;45461;-90
2022/05/02 08:28:49;;;;;;;;;28.00;27.00;;;;;19.75;35.89;101537.50;5078390;28;45302;-90
2022/05/02 08:31:36;;;;;;;;;29.67;27.00;;;;;19.61;36.70;101489.75;5078706;27;45647;-90
2022/05/02 08:34:28;;;;;;;;;26.67;25.33;;;;;19.85;36.46;101501.69;5078587;28;45501;-90
2022/05/02 08:37:24;;;;;;;;;29.33;26.00;;;;;20.13;35.74;101527.66;5078461;28;45329;-90
2022/05/02 08:39:56;;;;;;;;;26.33;25.00;;;;;20.28;35.62;101525.72;5059894;27;45298;-90
2022/05/02 08:42:48;;;;;;;;;24.33;22.00;;;;;20.34;34.83;101531.53;5079260;27;45242;-90
2022/05/02 08:45:19;;;;;;;;;27.00;26.33;;;;;20.43;35.41;101525.44;5078160;27;45501;-90
2022/05/02 08:48:03;;;;;;;;;25.67;24.67;;;;;20.64;34.84;101519.47;5078007;28;45343;-90
2022/05/02 08:50:53;;;;;;;;;24.00;23.00;;;;;20.57;34.15;101480.28;5059900;28;45865;-89
2022/05/02 08:53:30;;;;;;;;;25.33;21.67;;;;;21.17;34.23;101516.44;5078390;28;45357;-90
2022/05/02 08:56:14;;;;;;;;;29.67;28.00;;;;;21.37;33.91;101487.78;5077659;27;46582;-90
2022/05/02 08:59:03;;;;;;;;;28.00;23.67;;;;;22.01;33.59;101514.44;5077458;27;45453;-89
2022/05/02 09:02:00;;;;;;;;;25.33;22.00;;;;;22.54;32.67;101514.69;5060014;28;45400;-90
2022/05/02 09:04:53;;;;;;;;;28.00;24.67;;;;;23.08;32.83;101500.22;5078113;27;45420;-90
2022/05/02 09:07:38;;;;;;;;;30.00;26.33;;;;;23.71;32.17;101519.31;5077812;28;45434;-90
2022/05/02 09:10:10;;;;;;;;;30.00;24.33;;;;;24.14;30.72;101499.25;5077745;27;45361;-90
2022/05/02 09:12:35;;;;;;;;;36.00;28.67;;;;;24.72;30.36;101520.38;5059589;28;45523;-89
2022/05/02 09:15:24;;;;;;;;;40.67;32.00;;;;;25.33;30.04;101508.38;5078263;28;45553;-90
2022/05/02 09:18:31;;;;;;;;;32.67;28.33;;;;;26.04;29.59;101507.16;5077878;27;45608;-90
2022/05/02 09:21:25;;;;;;;;;29.00;26.00;;;;;26.35;28.13;101439.38;4975709;28;45372;-90
2022/05/02 09:24:23;;;;;;;;;29.33;25.67;;;;;27.32;28.15;101498.00;4975709;28;45488;-89
2022/05/02 09:27:00;;;;;;;;;26.67;24.00;;;;;27.69;26.45;101473.13;4976095;28;45325;-89
2022/05/02 09:29:40;;;;;;;;;23.00;20.33;;;;;28.29;26.72;101496.09;4975744;28;45518;-89
2022/05/02 09:32:25;;;;;;;;;25.33;25.33;;;;;28.27;25.78;101421.38;4975212;28;45454;-88
2022/05/02 09:35:10;;;;;;;;;20.67;19.67;;;;;28.71;25.64;101404.72;4975673;28;45556;-88
2022/05/02 09:37:41;;;;;;;;;27.33;25.33;;;;;29.29;24.69;101420.19;4975229;28;45602;-89
2022/05/02 09:40:16;;;;;;;;;25.33;21.33;;;;;30.01;24.17;101447.66;4974957;28;45414;-89
2022/05/02 09:43:19;;;;;;;;;31.33;26.33;;;;;30.65;23.74;101461.31;4959234;28;46201;-89
2022/05/02 09:49:33;;;;;;;;;22.33;22.33;;;;;32.14;21.98;101481.84;4975741;28;45269;-89
2022/05/02 09:52:03;;;;;;;;;27.00;25.67;;;;;32.61;21.69;101474.19;4975000;28;46318;-89
2022/05/02 09:57:34;;;;;;;;;21.00;21.00;;;;;32.38;21.45;101410.84;5021550;28;45408;-88
2022/05/02 10:02:50;;;;;;;;;23.67;23.67;;;;;32.19;21.08;101409.56;5076966;28;45809;-89
2022/05/02 10:05:26;;;;;;;;;26.67;25.67;;;;;32.52;20.50;101475.38;5077424;28;45473;-89
2022/05/02 10:08:01;;;;;;;;;26.00;24.33;;;;;32.64;21.26;101471.06;5058605;28;45495;-89
2022/05/02 10:10:39;;;;;;;;;22.33;19.33;;;;;32.63;20.41;101397.56;5077352;28;45574;-88
2022/05/02 10:13:24;;;;;;;;;19.33;18.00;;;;;33.43;19.58;101448.03;5058662;28;47487;-89
2022/05/02 10:16:04;;;;;;;;;28.67;23.33;;;;;34.06;19.73;101468.25;5077020;27;45429;-89
2022/05/02 10:18:32;;;;;;;;;23.67;22.67;;;;;34.48;18.93;101471.03;5058435;28;45319;-89
2022/05/02 10:21:11;;;;;;;;;22.33;22.00;;;;;34.70;19.29;101457.94;5077301;28;45430;-88
2022/05/02 10:23:42;;;;;;;;;27.67;25.33;;;;;34.58;19.44;101468.72;5076519;27;46924;-89
2022/05/02 10:26:23;;;;;;;;;18.67;18.67;;;;;34.57;18.55;101466.16;5058732;28;45740;-89
2022/05/02 10:28:51;;;;;;;;;24.67;24.00;;;;;34.40;18.94;101454.59;5058879;28;45373;-88
2022/05/02 10:31:21;;;;;;;;;22.00;21.67;;;;;34.13;19.40;101446.19;5077185;27;45436;-89
2022/05/02 10:33:51;;;;;;;;;23.67;23.67;;;;;33.87;19.34;101441.34;5075169;27;48340;-89
2022/05/02 10:36:20;;;;;;;;;20.67;20.00;;;;;33.98;19.44;101443.53;5058082;28;45416;-89
2022/05/02 10:38:53;;;;;;;;;20.00;20.00;;;;;34.11;19.54;101456.59;5075641;28;45348;-89
2022/05/02 10:41:42;;;;;;;;;22.00;20.00;;;;;33.65;19.48;101368.69;5058872;28;45389;-89
2022/05/02 10:44:09;;;;;;;;;18.67;18.67;;;;;34.38;18.85;101443.72;5076705;28;46579;-89
2022/05/02 10:46:37;;;;;;;;;18.33;17.33;;;;;34.22;19.25;101378.53;5076560;27;45337;-89
2022/05/02 10:49:12;;;;;;;;;25.33;19.33;;;;;34.14;18.87;101373.19;5075431;28;45333;-89
2022/05/02 10:52:20;;;;;;;;;18.67;16.33;;;;;34.00;19.47;101446.94;5058254;28;45392;-89
2022/05/02 10:54:51;;;;;;;;;18.67;16.00;;;;;33.17;19.63;101399.78;5066637;27;46150;-89
2022/05/02 10:57:34;;;;;;;;;17.33;16.33;;;;;32.97;19.60;101405.13;5092382;27;45465;-89
2022/05/02 11:00:04;;;;;;;;;19.00;19.00;;;;;33.28;19.62;101430.69;5101227;27;45325;-88
2022/05/02 11:03:03;;;;;;;;;21.33;16.67;;;;;33.49;19.79;101438.94;5101326;27;45435;-89
2022/05/02 11:05:44;;;;;;;;;16.00;16.00;;;;;33.79;19.08;101430.44;5081464;27;47378;-91
2022/05/02 11:08:22;;;;;;;;;21.67;21.00;;;;;33.73;18.83;101348.31;5081961;27;45498;-91
2022/05/02 11:10:58;;;;;;;;;17.33;17.33;;;;;33.92;18.78;101430.50;5100519;27;45580;-91
2022/05/02 11:13:23;;;;;;;;;18.67;16.00;;;;;33.28;19.40;101422.41;5082281;27;45390;-92
2022/05/02 11:16:03;;;;;;;;;18.00;17.33;;;;;33.29;19.73;101418.59;5100477;27;46277;-89
2022/05/02 11:21:41;;;;;;;;;17.67;16.67;;;;;32.13;20.70;101425.00;5100004;27;45527;-88
2022/05/02 11:24:39;;;;;;;;;22.67;19.33;;;;;31.38;20.77;101361.75;5082096;27;45358;-89
2022/05/02 11:27:16;;;;;;;;;16.33;14.67;;;;;30.67;20.58;101316.13;5085342;27;46414;-89
2022/05/02 11:29:54;;;;;;;;;14.33;14.00;;;;;31.15;21.17;101417.75;5099875;27;45541;-88
2022/05/02 11:32:37;;;;;;;;;18.33;16.00;;;;;30.89;20.84;101369.47;5081638;27;45357;-89
2022/05/02 11:35:37;;;;;;;;;15.33;14.00;;;;;31.09;20.75;101415.75;5100203;27;45408;-89
2022/05/02 11:38:22;;;;;;;;;15.67;15.67;;;;;30.71;21.25;101419.28;5036514;28;46404;-90
2022/05/02 11:40:53;;;;;;;;;19.33;16.00;;;;;30.36;21.82;101417.09;5036507;28;45712;-90
2022/05/02 11:43:22;;;;;;;;;17.67;16.67;;;;;29.80;21.95;101348.44;5020084;28;45362;-90
2022/05/02 11:45:57;;;;;;;;;19.00;16.67;;;;;29.68;22.35;101353.47;5037104;28;45404;-90
2022/05/02 11:48:25;;;;;;;;;15.67;15.00;;;;;29.79;22.75;101409.97;5036059;28;46227;-89
2022/05/02 11:50:56;;;;;;;;;17.67;15.67;;;;;29.51;22.51;101410.34;5019747;28;45501;-90
2022/05/02 11:53:25;;;;;;;;;16.67;15.00;;;;;29.08;22.87;101381.41;5036291;28;45571;-90
2022/05/02 11:55:52;;;;;;;;;17.00;16.67;;;;;28.97;22.55;101412.78;5035991;28;45438;-90
2022/05/02 11:58:24;;;;;;;;;19.00;15.67;;;;;28.86;23.26;101413.97;5016314;28;45395;-90
2022/05/02 12:01:04;;;;;;;;;15.33;15.33;;;;;28.64;23.34;101409.16;5016740;28;45417;-89
2022/05/02 12:03:54;;;;;;;;;15.67;15.33;;;;;28.53;23.66;101408.44;5015298;28;45459;-90
2022/05/02 12:06:31;;;;;;;;;15.67;15.67;;;;;28.11;23.90;101364.63;5016515;28;45325;-89